Time;durP1;ratioP1;P1;durP2;ratioP2;P2;SDS_P1;SDS_P2;PMS_P1;PMS_P2;Temp;Humidity;BMP_temperature;BMP_pressure;BME280_temperature;BME280_humidity;BME280_pressure;Samples;Min_cycle;Max_cycle;Signal;HPM_P1;HPM_P2
2022/02/25 00:00:56;;;;;;;2.97;1.50;;;21.40;53.20;;;;;;4970049;28;92871;-81
2022/02/25 00:03:21;;;;;;;2.20;1.40;;;21.40;53.10;;;;;;4967902;28;92889;-81
2022/02/25 00:05:47;;;;;;;2.70;1.50;;;21.40;53.10;;;;;;4969021;28;92784;-81
2022/02/25 00:08:12;;;;;;;2.80;1.80;;;21.40;53.60;;;;;;4969629;28;92776;-83
2022/02/25 00:10:38;;;;;;;3.92;1.98;;;21.40;53.10;;;;;;4970127;28;93154;-83
2022/02/25 00:13:04;;;;;;;2.97;1.40;;;21.40;53.00;;;;;;4968681;28;92029;-82
2022/02/25 00:15:30;;;;;;;1.90;1.30;;;21.40;52.90;;;;;;4966844;28;95371;-83
2022/02/25 00:17:58;;;;;;;3.28;1.60;;;21.30;52.90;;;;;;4984155;28;92981;-80
2022/02/25 00:20:31;;;;;;;3.53;1.52;;;21.40;52.80;;;;;;4969012;28;93334;-84
2022/02/25 00:22:57;;;;;;;2.63;1.50;;;21.30;53.00;;;;;;4968904;28;92835;-83
2022/02/25 00:25:22;;;;;;;2.45;1.52;;;21.30;52.70;;;;;;4966412;28;95611;-82
2022/02/25 00:27:48;;;;;;;3.47;1.67;;;21.30;52.80;;;;;;4969253;28;92716;-82
2022/02/25 00:30:14;;;;;;;3.33;1.67;;;21.30;52.80;;;;;;4967990;28;93273;-82
2022/02/25 00:32:40;;;;;;;1.88;1.23;;;21.30;52.90;;;;;;4969099;28;93061;-81
2022/02/25 00:35:07;;;;;;;2.45;1.38;;;21.30;52.80;;;;;;4968373;28;93171;-83
2022/02/25 00:37:32;;;;;;;2.53;1.40;;;21.30;52.70;;;;;;4968441;28;93629;-84
2022/02/25 00:39:59;;;;;;;3.20;1.50;;;21.20;52.60;;;;;;4969373;28;92179;-80
2022/02/25 00:42:25;;;;;;;2.72;1.48;;;21.20;52.80;;;;;;4968923;28;92484;-79
2022/02/25 00:44:51;;;;;;;2.65;1.35;;;21.30;52.80;;;;;;4968441;28;94066;-82
2022/02/25 00:47:16;;;;;;;3.08;1.50;;;21.20;52.60;;;;;;4968711;28;93407;-83
2022/02/25 00:49:43;;;;;;;2.17;1.33;;;21.20;52.40;;;;;;4967709;28;92105;-83
2022/02/25 00:52:09;;;;;;;2.15;1.40;;;21.20;52.40;;;;;;4969468;28;92876;-83
2022/02/25 00:54:34;;;;;;;3.72;1.65;;;21.20;52.50;;;;;;4967002;28;95792;-82
2022/02/25 00:57:00;;;;;;;2.28;1.33;;;21.20;52.60;;;;;;4968816;28;92963;-80
2022/02/25 00:59:26;;;;;;;3.10;1.50;;;21.20;52.40;;;;;;4968410;28;93135;-84
2022/02/25 01:01:51;;;;;;;2.70;1.40;;;21.20;52.30;;;;;;4969113;28;92269;-80
2022/02/25 01:04:19;;;;;;;3.13;1.50;;;21.20;52.50;;;;;;4966860;28;96075;-82
2022/02/25 01:06:45;;;;;;;2.67;1.27;;;21.20;52.30;;;;;;4968371;28;93030;-82
2022/02/25 01:09:11;;;;;;;3.22;1.50;;;21.20;52.30;;;;;;4967988;28;93534;-79
2022/02/25 01:11:37;;;;;;;3.00;1.50;;;21.20;52.50;;;;;;4967370;28;92648;-81
2022/02/25 01:14:03;;;;;;;3.05;1.63;;;21.10;52.20;;;;;;4967590;28;92847;-83
2022/02/25 01:16:29;;;;;;;2.65;1.30;;;21.10;52.40;;;;;;4967767;28;93068;-80
2022/02/25 01:18:55;;;;;;;2.28;1.55;;;21.10;52.40;;;;;;4967813;28;92310;-83
2022/02/25 01:21:20;;;;;;;3.30;1.65;;;21.10;52.30;;;;;;4968202;28;92864;-80
2022/02/25 01:23:46;;;;;;;2.13;1.50;;;21.10;52.40;;;;;;4967745;28;92668;-80
2022/02/25 01:26:11;;;;;;;2.95;1.42;;;21.10;52.30;;;;;;4968243;28;92380;-81
2022/02/25 01:28:37;;;;;;;2.67;1.25;;;21.10;52.10;;;;;;4968583;28;92048;-80
2022/02/25 01:31:03;;;;;;;2.42;1.50;;;21.10;52.10;;;;;;4966727;28;92908;-80
2022/02/25 01:33:29;;;;;;;3.05;1.60;;;21.10;52.10;;;;;;4968086;28;93635;-81
2022/02/25 01:35:55;;;;;;;2.00;1.33;;;21.10;52.10;;;;;;4967699;28;93066;-82
2022/02/25 01:38:21;;;;;;;3.13;1.38;;;21.10;52.10;;;;;;4967121;28;92145;-81
2022/02/25 01:40:49;;;;;;;2.40;1.42;;;21.10;52.10;;;;;;4967409;28;92729;-80
2022/02/25 01:43:14;;;;;;;2.03;1.27;;;21.00;51.90;;;;;;4968353;28;93468;-82
2022/02/25 01:45:40;;;;;;;1.92;1.40;;;21.00;52.00;;;;;;4968396;28;92851;-80
2022/02/25 01:48:06;;;;;;;2.20;1.30;;;21.00;52.10;;;;;;4983529;28;92288;-81
2022/02/25 01:50:35;;;;;;;2.20;1.55;;;21.00;51.80;;;;;;4968126;28;92058;-84
2022/02/25 01:53:04;;;;;;;;;;;21.00;52.10;;;;;;4968340;28;92803;-82
2022/02/25 01:55:31;;;;;;;3.05;1.38;;;21.00;52.00;;;;;;4983975;28;94111;-82
2022/02/25 01:57:56;;;;;;;1.48;1.05;;;21.00;51.80;;;;;;4965956;28;93469;-82
2022/02/25 02:00:22;;;;;;;2.15;1.33;;;21.00;51.90;;;;;;4967288;28;92981;-81
2022/02/25 02:02:49;;;;;;;1.73;1.27;;;21.00;52.00;;;;;;4968289;28;91913;-82
2022/02/25 02:05:15;;;;;;;2.42;1.30;;;21.00;51.90;;;;;;4967645;28;92387;-83
2022/02/25 02:07:40;;;;;;;2.65;1.30;;;21.00;51.80;;;;;;4968191;28;92923;-84
2022/02/25 02:10:06;;;;;;;2.80;1.27;;;21.00;51.70;;;;;;4968576;28;92481;-82
2022/02/25 02:12:32;;;;;;;2.17;1.33;;;21.00;51.90;;;;;;4967594;28;92637;-83
2022/02/25 02:14:58;;;;;;;5.82;1.35;;;21.00;51.90;;;;;;4968093;28;92344;-81
2022/02/25 02:17:23;;;;;;;3.40;1.50;;;21.00;51.80;;;;;;4967869;28;92586;-82
2022/02/25 02:19:49;;;;;;;3.08;1.48;;;20.90;51.60;;;;;;4967894;28;92014;-81
2022/02/25 02:22:15;;;;;;;1.95;1.35;;;20.90;51.70;;;;;;4967699;28;93962;-83
2022/02/25 02:24:41;;;;;;;3.15;1.30;;;20.90;51.80;;;;;;4966955;28;93516;-80
2022/02/25 02:27:07;;;;;;;2.58;1.38;;;20.90;51.70;;;;;;4968115;28;93005;-83
2022/02/25 02:29:32;;;;;;;1.73;1.25;;;20.90;51.60;;;;;;4965951;28;92889;-83
2022/02/25 02:31:58;;;;;;;2.17;1.30;;;20.90;51.70;;;;;;4967123;28;92683;-82
2022/02/25 02:34:24;;;;;;;2.13;1.23;;;20.90;51.60;;;;;;4965789;28;92873;-83
2022/02/25 02:36:50;;;;;;;1.95;1.20;;;20.90;51.50;;;;;;4967032;28;93654;-81
2022/02/25 02:39:26;;;;;;;2.75;1.50;;;20.90;51.60;;;;;;4968623;28;91304;-83
2022/02/25 02:41:51;;;;;;;1.73;1.45;;;20.90;51.60;;;;;;4967514;28;93348;-82
2022/02/25 02:44:17;;;;;;;2.78;1.42;;;20.90;51.50;;;;;;4965516;28;96208;-82
2022/02/25 02:46:43;;;;;;;2.80;1.65;;;20.90;51.60;;;;;;4967848;28;93833;-80
2022/02/25 02:49:09;;;;;;;2.10;1.42;;;20.80;51.50;;;;;;4965979;28;93077;-81
2022/02/25 02:51:35;;;;;;;2.38;1.30;;;20.90;51.50;;;;;;4965929;28;95737;-83
2022/02/25 02:54:01;;;;;;;3.10;1.38;;;20.80;51.30;;;;;;4966529;28;92826;-79
2022/02/25 02:56:28;;;;;;;3.00;1.40;;;20.80;51.30;;;;;;4967380;28;92526;-80
2022/02/25 02:58:55;;;;;;;3.10;1.42;;;20.80;51.30;;;;;;4965166;28;92505;-82
2022/02/25 03:01:28;;;;;;;2.58;1.27;;;20.80;51.30;;;;;;4966742;28;93064;-82
2022/02/25 03:03:54;;;;;;;2.33;1.15;;;20.80;51.50;;;;;;4965974;28;93982;-82
2022/02/25 03:06:20;;;;;;;1.58;1.20;;;20.80;51.50;;;;;;4967424;28;92509;-80
2022/02/25 03:08:46;;;;;;;1.70;1.25;;;20.80;51.30;;;;;;4966405;28;92861;-78
2022/02/25 03:11:12;;;;;;;2.78;1.48;;;20.80;51.40;;;;;;4965531;28;93060;-81
2022/02/25 03:13:38;;;;;;;2.53;1.40;;;20.80;51.30;;;;;;4965989;28;92624;-82
2022/02/25 03:16:04;;;;;;;2.40;1.30;;;20.80;51.30;;;;;;4966815;28;92441;-81
2022/02/25 03:18:32;;;;;;;2.47;1.30;;;20.80;51.40;;;;;;4967165;28;92249;-81
2022/02/25 03:21:03;;;;;;;1.83;1.20;;;20.80;51.30;;;;;;4967052;28;92681;-82
2022/02/25 03:23:28;;;;;;;3.08;1.30;;;20.80;51.50;;;;;;4966156;28;92263;-81
2022/02/25 03:25:54;;;;;;;2.85;1.40;;;20.80;51.40;;;;;;4966670;28;92084;-81
2022/02/25 03:28:22;;;;;;;2.55;1.40;;;20.70;51.30;;;;;;4967510;28;91852;-79
2022/02/25 03:30:48;;;;;;;2.17;1.57;;;20.80;51.30;;;;;;4966920;28;93314;-82
2022/02/25 03:33:14;;;;;;;2.15;1.30;;;20.80;51.40;;;;;;4965025;28;95280;-81
2022/02/25 03:35:39;;;;;;;2.22;1.30;;;20.70;51.30;;;;;;4965965;28;92968;-80
2022/02/25 03:38:05;;;;;;;3.10;1.80;;;20.70;51.10;;;;;;4965893;28;92984;-82
2022/02/25 03:40:31;;;;;;;2.47;1.48;;;20.70;51.30;;;;;;4966012;28;92886;-82
2022/02/25 03:42:56;;;;;;;2.33;1.30;;;20.70;51.30;;;;;;4966958;28;92764;-82
2022/02/25 03:45:22;;;;;;;2.25;1.35;;;20.70;51.30;;;;;;4966529;28;92914;-82
2022/02/25 03:47:48;;;;;;;3.13;1.70;;;20.70;51.20;;;;;;4967092;28;91992;-80
2022/02/25 03:50:14;;;;;;;3.00;1.45;;;20.70;51.20;;;;;;4966497;28;92691;-82
2022/02/25 03:52:40;;;;;;;2.08;1.50;;;20.70;51.10;;;;;;4967076;28;92967;-82
2022/02/25 03:55:07;;;;;;;2.55;1.30;;;20.70;51.10;;;;;;4967116;28;92676;-81
2022/02/25 03:57:32;;;;;;;2.53;1.42;;;20.70;51.30;;;;;;4966524;28;92984;-81
2022/02/25 03:59:58;;;;;;;3.40;1.50;;;20.70;51.30;;;;;;4966116;28;94113;-82
2022/02/25 04:02:24;;;;;;;2.35;1.20;;;20.70;51.20;;;;;;4966237;28;93290;-83
2022/02/25 04:04:49;;;;;;;1.95;1.25;;;20.70;51.30;;;;;;4981202;28;93014;-82
2022/02/25 04:07:23;;;;;;;2.55;1.33;;;20.70;51.20;;;;;;4966300;28;92148;-80
2022/02/25 04:09:48;;;;;;;3.90;1.58;;;20.70;51.20;;;;;;4965940;28;93242;-82
2022/02/25 04:12:14;;;;;;;2.55;1.40;;;20.70;51.20;;;;;;4966402;28;92460;-80
2022/02/25 04:14:41;;;;;;;2.13;1.35;;;20.60;51.00;;;;;;4970297;28;92949;-80
2022/02/25 04:17:06;;;;;;;1.92;1.35;;;20.60;50.90;;;;;;4970274;28;92652;-81
2022/02/25 04:19:32;;;;;;;3.15;1.90;;;20.60;51.00;;;;;;4968416;28;92687;-82
2022/02/25 04:21:58;;;;;;;2.38;1.15;;;20.60;50.90;;;;;;4967547;28;92473;-83
2022/02/25 04:24:24;;;;;;;3.08;1.30;;;20.60;50.80;;;;;;4968416;28;93509;-81
2022/02/25 04:26:50;;;;;;;2.85;1.42;;;20.60;50.80;;;;;;4969212;28;92021;-81
2022/02/25 04:29:16;;;;;;;1.90;1.20;;;20.60;50.70;;;;;;4969187;28;93848;-82
2022/02/25 04:31:42;;;;;;;2.13;1.10;;;20.60;50.70;;;;;;4969610;28;92760;-82
2022/02/25 04:34:08;;;;;;;2.50;1.33;;;20.60;50.80;;;;;;4969373;28;93101;-82
2022/02/25 04:36:36;;;;;;;1.63;1.17;;;20.60;50.70;;;;;;4968869;28;92442;-85
2022/02/25 04:39:05;;;;;;;3.05;1.45;;;20.60;50.60;;;;;;4967356;28;96122;-81
2022/02/25 04:41:31;;;;;;;2.35;1.23;;;20.60;50.80;;;;;;4968928;28;92358;-82
2022/02/25 04:43:56;;;;;;;2.45;1.40;;;20.60;50.60;;;;;;4968692;28;92899;-81
2022/02/25 04:46:31;;;;;;;2.70;1.35;;;20.60;50.70;;;;;;4967951;28;92453;-82
2022/02/25 04:48:59;;;;;;;2.40;1.25;;;20.50;50.50;;;;;;4967775;28;94118;-82
2022/02/25 04:51:25;;;;;;;2.85;1.30;;;20.50;50.50;;;;;;4968369;28;94232;-80
2022/02/25 04:53:50;;;;;;;2.30;1.30;;;20.50;50.60;;;;;;4968842;28;92133;-82
2022/02/25 04:56:16;;;;;;;2.33;1.30;;;20.50;50.50;;;;;;4969287;28;93004;-83
2022/02/25 04:58:42;;;;;;;3.53;1.73;;;20.50;51.10;;;;;;4967652;28;93823;-82
2022/02/25 05:01:08;;;;;;;3.97;1.90;;;20.50;51.10;;;;;;4966981;28;92810;-81
2022/02/25 05:03:33;;;;;;;3.35;1.60;;;20.50;50.40;;;;;;4969114;28;92662;-81
2022/02/25 05:05:59;;;;;;;1.98;1.30;;;20.50;50.30;;;;;;4968212;28;92454;-81
2022/02/25 05:08:25;;;;;;;2.58;1.10;;;20.50;50.50;;;;;;4969204;28;93136;-85
2022/02/25 05:10:52;;;;;;;2.60;1.35;;;20.50;50.40;;;;;;4967437;28;94885;-82
2022/02/25 05:13:18;;;;;;;2.45;1.45;;;20.50;50.30;;;;;;4968570;28;93505;-82
2022/02/25 05:21:12;;;;;;;2.25;1.33;;;20.40;50.20;;;;;;4968384;28;93091;-82
2022/02/25 05:23:38;;;;;;;2.65;1.40;;;20.40;50.30;;;;;;4968560;28;92023;-83
2022/02/25 05:26:04;;;;;;;2.20;1.50;;;20.40;50.30;;;;;;4967945;28;92820;-80
2022/02/25 05:28:30;;;;;;;2.00;1.27;;;20.40;50.20;;;;;;4969105;28;93338;-83
2022/02/25 05:30:55;;;;;;;2.38;1.40;;;20.40;50.20;;;;;;4968730;28;93091;-81
2022/02/25 05:33:21;;;;;;;4.57;1.50;;;20.40;50.20;;;;;;4968767;28;92942;-81
2022/02/25 05:35:46;;;;;;;2.03;1.10;;;20.40;50.20;;;;;;4967610;28;92156;-82
2022/02/25 05:38:13;;;;;;;2.72;1.27;;;20.40;50.30;;;;;;4966730;28;93504;-82
2022/02/25 05:40:39;;;;;;;2.53;1.55;;;20.40;50.10;;;;;;4966908;28;92781;-83
2022/02/25 05:43:05;;;;;;;2.58;1.27;;;20.40;50.20;;;;;;4966966;28;92653;-83
2022/02/25 05:45:31;;;;;;;2.22;1.30;;;20.40;49.90;;;;;;4968097;28;92792;-82
2022/02/25 05:47:56;;;;;;;1.83;1.20;;;20.40;50.10;;;;;;4967905;28;92964;-82
2022/02/25 05:50:23;;;;;;;1.95;1.30;;;20.40;50.00;;;;;;4967716;28;92546;-80
2022/02/25 05:52:49;;;;;;;2.53;1.58;;;20.40;49.80;;;;;;4968659;28;91981;-82
2022/02/25 05:55:16;;;;;;;2.63;1.58;;;20.40;49.90;;;;;;4968190;28;91494;-82
2022/02/25 05:57:42;;;;;;;2.22;1.50;;;20.30;49.90;;;;;;4967988;28;92868;-81
2022/02/25 06:00:17;;;;;;;2.15;1.40;;;20.30;49.90;;;;;;4967457;28;92605;-83
2022/02/25 06:02:45;;;;;;;2.08;1.25;;;20.30;49.90;;;;;;4967689;28;93779;-81
2022/02/25 06:05:10;;;;;;;2.80;1.45;;;20.30;49.70;;;;;;4967559;28;92809;-81
2022/02/25 06:07:36;;;;;;;2.20;1.23;;;20.30;49.80;;;;;;4983007;28;92874;-83
2022/02/25 06:10:03;;;;;;;2.72;1.30;;;20.30;49.60;;;;;;4967848;28;92742;-81
2022/02/25 06:12:29;;;;;;;2.47;1.30;;;20.30;49.70;;;;;;4965793;28;92286;-83
2022/02/25 06:14:54;;;;;;;3.97;1.67;;;20.30;49.80;;;;;;4967427;28;92660;-83
2022/02/25 06:17:20;;;;;;;2.47;1.60;;;20.30;49.70;;;;;;4966227;28;92514;-82
2022/02/25 06:19:46;;;;;;;2.50;1.45;;;20.30;49.60;;;;;;4967100;28;92218;-83
2022/02/25 06:22:11;;;;;;;3.17;1.45;;;20.30;49.70;;;;;;4967180;28;92719;-83
2022/02/25 06:24:37;;;;;;;3.30;1.48;;;20.30;49.60;;;;;;4966557;28;93108;-80
2022/02/25 06:27:03;;;;;;;2.22;1.30;;;20.30;49.70;;;;;;4967148;28;93806;-83
2022/02/25 06:29:29;;;;;;;3.70;1.60;;;20.30;49.60;;;;;;4967446;28;93326;-83
2022/02/25 06:31:54;;;;;;;3.05;1.40;;;20.30;49.70;;;;;;4967829;28;91952;-83
2022/02/25 06:34:20;;;;;;;2.15;1.17;;;20.30;49.60;;;;;;4966847;28;92121;-83
2022/02/25 06:36:46;;;;;;;1.70;1.10;;;20.30;49.50;;;;;;4965904;28;92788;-80
2022/02/25 06:39:12;;;;;;;5.22;1.50;;;20.30;49.50;;;;;;4967343;28;92715;-82
2022/02/25 06:41:38;;;;;;;2.47;1.33;;;20.20;49.40;;;;;;4967371;28;93454;-80
2022/02/25 06:44:06;;;;;;;3.45;1.40;;;20.30;49.30;;;;;;4965910;28;91855;-82
2022/02/25 06:46:32;;;;;;;3.15;1.45;;;20.30;49.40;;;;;;4966556;28;92677;-81
2022/02/25 06:48:58;;;;;;;2.22;1.48;;;20.30;49.40;;;;;;4981924;28;95141;-80
2022/02/25 06:51:24;;;;;;;3.28;1.50;;;20.30;50.10;;;;;;4967498;28;93342;-81
2022/02/25 06:53:50;;;;;;;2.33;1.45;;;20.30;50.40;;;;;;4966468;28;92340;-83
2022/02/25 06:56:20;;;;;;;2.20;1.50;;;20.40;50.40;;;;;;4965769;28;93100;-83
2022/02/25 06:58:45;;;;;;;2.78;1.45;;;20.40;50.50;;;;;;4967136;28;92646;-79
2022/02/25 07:01:11;;;;;;;4.07;1.73;;;20.40;50.30;;;;;;4967126;28;92486;-83
2022/02/25 07:03:37;;;;;;;2.90;1.85;;;20.50;49.90;;;;;;4967248;28;92942;-82
2022/02/25 07:06:04;;;;;;;2.70;1.67;;;20.60;50.00;;;;;;4966580;28;92900;-83
2022/02/25 07:08:30;;;;;;;3.78;1.50;;;20.60;50.00;;;;;;4966874;28;92892;-83
2022/02/25 07:10:55;;;;;;;3.28;1.90;;;20.60;50.10;;;;;;4967087;28;92742;-82
2022/02/25 07:13:21;;;;;;;3.50;1.50;;;20.70;49.70;;;;;;4967091;28;92897;-82
2022/02/25 07:15:47;;;;;;;4.68;1.50;;;20.60;49.70;;;;;;4965779;28;93522;-84
2022/02/25 07:18:16;;;;;;;3.08;1.63;;;20.70;49.90;;;;;;4966702;28;94876;-83
2022/02/25 07:20:45;;;;;;;3.65;1.77;;;20.70;50.00;;;;;;4967313;28;92447;-82
2022/02/25 07:23:12;;;;;;;3.90;1.50;;;20.70;49.90;;;;;;4968106;28;93194;-83
2022/02/25 07:25:48;;;;;;;3.22;1.55;;;20.70;49.90;;;;;;4966731;28;92609;-82
2022/02/25 07:28:13;;;;;;;3.13;1.70;;;20.70;49.90;;;;;;4967035;28;92160;-82
2022/02/25 07:30:39;;;;;;;4.07;1.65;;;20.70;49.90;;;;;;4967494;28;93135;-81
2022/02/25 07:33:05;;;;;;;4.18;1.70;;;20.70;49.90;;;;;;4967904;28;91666;-80
2022/02/25 07:35:31;;;;;;;2.85;1.50;;;20.70;49.90;;;;;;4964184;28;92770;-83
2022/02/25 07:37:57;;;;;;;3.05;1.65;;;20.70;49.30;;;;;;4965768;28;92507;-81
2022/02/25 07:40:24;;;;;;;4.88;1.63;;;20.70;49.40;;;;;;4965150;28;93250;-82
2022/02/25 07:42:49;;;;;;;4.60;1.90;;;20.70;49.50;;;;;;4969411;28;92759;-83
2022/02/25 07:45:15;;;;;;;4.68;1.92;;;20.70;49.60;;;;;;4966421;28;92997;-81
2022/02/25 07:47:41;;;;;;;6.35;2.20;;;20.70;49.60;;;;;;4964359;28;95748;-81
2022/02/25 07:50:08;;;;;;;6.65;2.22;;;20.70;49.90;;;;;;4969650;28;92254;-83
2022/02/25 07:52:34;;;;;;;21.83;4.50;;;20.70;50.10;;;;;;4969378;28;92058;-79
2022/02/25 07:55:00;;;;;;;16.05;3.38;;;20.70;48.60;;;;;;4968842;28;93249;-82
2022/02/25 07:57:26;;;;;;;11.30;2.60;;;20.70;49.10;;;;;;4969490;28;92436;-81
2022/02/25 07:59:52;;;;;;;11.80;3.50;;;20.70;49.70;;;;;;4968315;28;92873;-81
2022/02/25 08:02:17;;;;;;;13.85;3.67;;;20.70;49.50;;;;;;4972374;28;92641;-79
2022/02/25 08:04:43;;;;;;;20.17;3.80;;;20.70;49.70;;;;;;4968201;28;96345;-81
2022/02/25 08:07:09;;;;;;;9.93;2.90;;;20.70;49.50;;;;;;4969673;28;93762;-82
2022/02/25 08:09:45;;;;;;;17.10;4.20;;;20.80;50.00;;;;;;4971186;28;92798;-81
2022/02/25 08:12:10;;;;;;;22.50;4.25;;;20.80;49.80;;;;;;4965595;28;93316;-81
2022/02/25 08:14:38;;;;;;;17.92;4.28;;;20.80;50.00;;;;;;4965664;28;93273;-79
2022/02/25 08:17:07;;;;;;;11.98;3.80;;;20.90;49.90;;;;;;4969234;28;93030;-79
2022/02/25 08:19:33;;;;;;;13.63;3.47;;;20.90;50.00;;;;;;4967785;28;92389;-81
2022/02/25 08:21:58;;;;;;;15.43;3.50;;;20.90;50.30;;;;;;4969144;28;92247;-80
2022/02/25 08:24:24;;;;;;;15.48;4.00;;;21.00;50.30;;;;;;4967724;28;92609;-79
2022/02/25 08:26:50;;;;;;;14.68;3.85;;;20.90;50.30;;;;;;4970143;28;92781;-79
2022/02/25 08:29:16;;;;;;;17.23;4.30;;;21.00;50.20;;;;;;4969979;28;93959;-80
2022/02/25 08:31:43;;;;;;;16.90;4.88;;;21.00;49.90;;;;;;4916162;28;92984;-82
2022/02/25 08:34:10;;;;;;;14.32;4.05;;;20.90;49.70;;;;;;4964493;28;93340;-78
2022/02/25 08:36:36;;;;;;;16.05;4.07;;;21.00;50.10;;;;;;4965724;28;92976;-82
2022/02/25 08:39:03;;;;;;;15.38;4.18;;;21.00;50.30;;;;;;4969049;28;92540;-82
2022/02/25 08:41:29;;;;;;;10.30;3.67;;;20.90;50.20;;;;;;4966575;28;92730;-79
2022/02/25 08:43:54;;;;;;;15.38;4.40;;;20.90;50.10;;;;;;4969186;28;93115;-80
2022/02/25 08:46:30;;;;;;;15.48;4.18;;;20.90;49.50;;;;;;4969264;28;92336;-82
2022/02/25 08:48:56;;;;;;;20.92;5.32;;;21.00;50.10;;;;;;4983939;28;93338;-80
2022/02/25 08:51:22;;;;;;;13.75;4.25;;;20.90;49.30;;;;;;4967087;28;92300;-79
2022/02/25 08:53:47;;;;;;;17.08;4.85;;;20.90;49.80;;;;;;4967662;28;93820;-80
2022/02/25 08:56:13;;;;;;;13.75;4.80;;;20.90;49.30;;;;;;4968329;28;95415;-79
2022/02/25 08:58:39;;;;;;;18.23;4.65;;;20.90;48.90;;;;;;4967719;28;92912;-80
2022/02/25 09:01:04;;;;;;;19.77;5.20;;;20.90;49.40;;;;;;4969049;28;92931;-79
2022/02/25 09:03:30;;;;;;;18.88;5.13;;;20.90;48.90;;;;;;4967933;28;92665;-81
2022/02/25 09:05:56;;;;;;;14.50;4.20;;;20.90;49.40;;;;;;4967871;28;92441;-80
2022/02/25 09:08:21;;;;;;;12.82;4.35;;;20.90;49.80;;;;;;4969148;28;92852;-81
2022/02/25 09:10:49;;;;;;;20.23;4.90;;;20.90;49.30;;;;;;4970776;28;91641;-80
2022/02/25 09:13:15;;;;;;;18.73;4.78;;;20.90;50.00;;;;;;4969016;28;92392;-82
2022/02/25 09:15:41;;;;;;;13.40;4.78;;;20.90;49.70;;;;;;4968125;28;93064;-81
2022/02/25 09:18:10;;;;;;;14.07;3.88;;;20.90;49.30;;;;;;4968428;28;93335;-80
2022/02/25 09:20:36;;;;;;;;;;;21.00;49.80;;;;;;4969404;28;93200;-81
2022/02/25 09:23:02;;;;;;;14.15;4.32;;;20.90;48.80;;;;;;4969799;28;92832;-80
2022/02/25 09:25:28;;;;;;;11.63;4.22;;;21.00;49.90;;;;;;4966968;28;92799;-80
2022/02/25 09:27:54;;;;;;;13.60;4.57;;;21.00;50.50;;;;;;4967335;28;93026;-81
2022/02/25 09:30:37;;;;;;;14.40;5.38;;;21.00;50.30;;;;;;4973389;28;92452;-79
2022/02/25 09:33:03;;;;;;;16.20;4.78;;;21.00;48.90;;;;;;4967667;28;93264;-81
2022/02/25 09:35:29;;;;;;;14.40;4.95;;;21.00;49.50;;;;;;4981342;28;95156;-79
2022/02/25 09:37:55;;;;;;;13.68;4.57;;;21.00;49.70;;;;;;4976542;28;92531;-79
2022/02/25 09:40:22;;;;;;;14.48;4.53;;;21.00;49.70;;;;;;4968338;28;92507;-78
2022/02/25 09:42:48;;;;;;;15.45;4.55;;;21.00;50.00;;;;;;4966832;28;93480;-79
2022/02/25 09:45:15;;;;;;;14.30;4.30;;;21.10;50.00;;;;;;4967874;28;93220;-80
2022/02/25 09:47:42;;;;;;;14.93;4.50;;;21.10;50.30;;;;;;4967158;28;92930;-79
2022/02/25 09:50:10;;;;;;;18.85;5.07;;;21.00;50.30;;;;;;4965882;28;93178;-79
2022/02/25 09:52:38;;;;;;;16.03;4.80;;;21.00;50.30;;;;;;4966935;28;93773;-79
2022/02/25 09:55:32;;;;;;;15.32;4.63;;;21.00;50.30;;;;;;4967298;28;94766;-79
2022/02/25 09:58:03;;;;;;;17.88;4.90;;;21.00;50.20;;;;;;4967729;28;92492;-80
2022/02/25 10:00:31;;;;;;;17.30;4.47;;;21.10;50.10;;;;;;4965247;28;91951;-80
2022/02/25 10:03:02;;;;;;;12.10;4.43;;;21.00;49.70;;;;;;4967729;28;94435;-81
2022/02/25 10:05:30;;;;;;;17.55;4.65;;;21.00;50.00;;;;;;4967696;28;92877;-82
2022/02/25 10:08:11;;;;;;;12.88;4.28;;;21.00;49.90;;;;;;4968074;28;93080;-80
2022/02/25 10:10:46;;;;;;;16.48;4.53;;;21.10;50.40;;;;;;4967549;28;92174;-79
2022/02/25 10:13:17;;;;;;;12.75;4.55;;;21.00;50.40;;;;;;4967857;28;92621;-80
2022/02/25 10:15:44;;;;;;;13.38;4.22;;;21.00;50.00;;;;;;4968086;28;93059;-82
2022/02/25 10:18:16;;;;;;;10.55;3.63;;;21.10;49.70;;;;;;4967444;28;92462;-80
2022/02/25 10:20:43;;;;;;;11.23;3.78;;;21.10;50.00;;;;;;4967017;28;92947;-79
2022/02/25 10:23:51;;;;;;;9.73;3.75;;;21.10;50.00;;;;;;4966068;28;93097;-80
2022/02/25 10:26:21;;;;;;;11.15;4.13;;;21.10;50.30;;;;;;4939599;28;92498;-79
2022/02/25 10:28:49;;;;;;;11.75;4.07;;;21.10;50.30;;;;;;4966194;28;92695;-80
2022/02/25 10:31:18;;;;;;;14.77;4.20;;;21.10;49.80;;;;;;4966660;28;92536;-79
2022/02/25 10:33:46;;;;;;;12.65;4.32;;;21.10;50.60;;;;;;4965646;28;94630;-81
2022/02/25 10:36:12;;;;;;;14.70;4.45;;;21.10;50.00;;;;;;4964987;28;93713;-80
2022/02/25 10:38:38;;;;;;;12.93;4.35;;;21.10;49.80;;;;;;4966277;28;93042;-80
2022/02/25 10:41:04;;;;;;;14.02;3.88;;;21.10;49.90;;;;;;4966186;28;92552;-79
2022/02/25 10:43:31;;;;;;;12.00;4.03;;;21.20;50.40;;;;;;4967004;28;92944;-81
2022/02/25 10:46:10;;;;;;;10.05;3.80;;;21.20;50.40;;;;;;4965770;28;93087;-81
2022/02/25 10:48:36;;;;;;;;;;;21.20;50.60;;;;;;4967460;28;93008;-80
2022/02/25 10:51:09;;;;;;;11.75;4.32;;;21.20;50.90;;;;;;4968486;28;91800;-81
2022/02/25 10:53:39;;;;;;;10.82;4.00;;;21.20;50.20;;;;;;4966605;28;93280;-79
2022/02/25 10:56:10;;;;;;;9.57;3.85;;;21.10;49.90;;;;;;4965287;28;93930;-80
2022/02/25 10:58:45;;;;;;;11.18;4.57;;;21.10;49.70;;;;;;4966762;28;94060;-81
2022/02/25 11:01:13;;;;;;;12.82;3.85;;;21.10;50.00;;;;;;4966354;28;92827;-80
2022/02/25 11:03:39;;;;;;;10.88;3.63;;;21.10;50.30;;;;;;4966236;28;92608;-81
2022/02/25 11:06:12;;;;;;;9.60;4.25;;;21.10;50.70;;;;;;4965815;28;92016;-81
2022/02/25 11:08:39;;;;;;;14.38;4.43;;;21.10;50.50;;;;;;4965185;28;92953;-82
2022/02/25 11:11:05;;;;;;;11.43;4.05;;;21.10;50.70;;;;;;4965631;28;92569;-78
2022/02/25 11:13:32;;;;;;;12.13;4.20;;;21.10;50.20;;;;;;4966508;28;93275;-81
2022/02/25 11:15:58;;;;;;;8.68;3.38;;;21.20;51.00;;;;;;4966806;28;92641;-78
2022/02/25 11:18:26;;;;;;;9.85;3.90;;;21.10;50.40;;;;;;4966448;28;92608;-80
2022/02/25 11:20:54;;;;;;;12.20;3.20;;;21.10;51.00;;;;;;4965046;28;93995;-79
2022/02/25 11:23:21;;;;;;;12.60;4.10;;;21.20;50.80;;;;;;4966315;28;94231;-81
2022/02/25 11:25:48;;;;;;;12.70;4.18;;;21.10;50.30;;;;;;4964198;28;96253;-79
2022/02/25 11:28:15;;;;;;;8.30;3.40;;;21.20;50.20;;;;;;4966837;28;92544;-79
2022/02/25 11:30:54;;;;;;;13.43;3.45;;;21.20;49.90;;;;;;4966126;28;92512;-79
2022/02/25 11:33:22;;;;;;;11.02;3.20;;;21.20;49.90;;;;;;4966522;28;93096;-80
2022/02/25 11:35:55;;;;;;;14.98;4.25;;;21.20;50.60;;;;;;4964669;28;92411;-82
2022/02/25 11:38:48;;;;;;;20.20;4.72;;;21.20;50.40;;;;;;4966029;28;92571;-80
2022/02/25 11:41:18;;;;;;;19.27;4.53;;;21.10;50.30;;;;;;4963984;28;91433;-81
2022/02/25 11:43:51;;;;;;;11.93;3.78;;;21.10;48.90;;;;;;4964886;28;94669;-82
2022/02/25 11:46:24;;;;;;;14.70;4.03;;;21.10;49.20;;;;;;4964916;28;93097;-81
2022/02/25 11:48:58;;;;;;;10.73;3.38;;;21.10;49.30;;;;;;4965406;28;93601;-81
2022/02/25 11:51:33;;;;;;;9.50;3.75;;;21.10;47.40;;;;;;4964409;28;93001;-78
2022/02/25 11:57:08;;;;;;;15.38;4.78;;;21.10;48.30;;;;;;4966170;28;92874;-82
2022/02/25 11:59:33;;;;;;;11.35;3.72;;;21.10;48.00;;;;;;4966244;28;92084;-79
2022/02/25 12:02:13;;;;;;;11.80;3.63;;;21.10;48.20;;;;;;4966642;28;92680;-79
2022/02/25 12:04:41;;;;;;;15.85;4.18;;;21.10;47.90;;;;;;4965730;28;93978;-80
2022/02/25 12:07:07;;;;;;;13.85;4.43;;;21.10;46.90;;;;;;4968812;28;92167;-78
2022/02/25 12:09:45;;;;;;;10.23;3.92;;;21.10;46.40;;;;;;4966151;28;92873;-80
2022/02/25 12:12:22;;;;;;;16.75;3.80;;;21.10;47.30;;;;;;4965713;28;92646;-80
2022/02/25 12:15:07;;;;;;;12.73;4.03;;;21.20;47.50;;;;;;4965322;28;94468;-80
2022/02/25 12:18:04;;;;;;;10.55;4.15;;;21.20;47.50;;;;;;4966786;28;93307;-77
2022/02/25 12:20:41;;;;;;;12.63;3.70;;;21.20;47.40;;;;;;4965543;28;92409;-80
2022/02/25 12:23:21;;;;;;;12.40;4.20;;;21.20;47.90;;;;;;4965631;28;92731;-80
2022/02/25 12:26:02;;;;;;;9.57;4.10;;;21.20;47.40;;;;;;4964520;28;92457;-81
2022/02/25 12:28:28;;;;;;;11.18;3.28;;;21.20;47.40;;;;;;4965910;28;92756;-80
2022/02/25 12:31:01;;;;;;;11.80;3.72;;;21.20;47.80;;;;;;4966457;28;92999;-79
2022/02/25 12:33:30;;;;;;;10.75;3.67;;;21.20;47.90;;;;;;4967581;28;91817;-81
2022/02/25 12:35:58;;;;;;;11.20;3.30;;;21.20;47.60;;;;;;4968484;28;93381;-81
2022/02/25 12:38:28;;;;;;;14.23;3.70;;;21.20;47.40;;;;;;4968586;28;92996;-81
2022/02/25 12:41:16;;;;;;;12.00;3.70;;;21.20;47.40;;;;;;4965579;28;93896;-81
2022/02/25 12:43:58;;;;;;;9.30;3.42;;;21.20;47.30;;;;;;4983240;28;92848;-79
2022/02/25 12:46:28;;;;;;;8.00;3.42;;;21.30;48.10;;;;;;4967618;28;93790;-80
2022/02/25 12:48:54;;;;;;;14.63;4.13;;;21.20;47.70;;;;;;4967606;28;95120;-81
2022/02/25 12:51:22;;;;;;;10.60;3.42;;;21.30;47.60;;;;;;4969233;28;92676;-81
2022/02/25 12:53:52;;;;;;;9.60;4.00;;;21.30;47.60;;;;;;4966707;28;92852;-79